Cisne Branco — PWCB — position and weather

sailwx.info

Track history (hours):
 
Tides and Currents Weather Stations Pressure Air Temp Water Temp Dewpoint Dewpoint Depression Visibility Wind Speed Wind Dir Waves Ship Positions

Cisne Branco (Brazil)

Last reported at 2019-Sep-05 14:53 UTC. Time now 2019-Oct-22 23:34 UTC.
Position N 35°44' W 012°31'.
Warning: this ship's position is 47 days out of date.

Length 78 m; draft 4.8 m.

MMSI: 710428000.

Date/timePositionNaut miles runAvg speedWind from/ knotsBaromVisibWave heightAir tempDewpointWater temp
2019-Sep-05 14:53N 35°44' W 012°31'10 6.9
2019-Sep-05 13:23N 35°53' W 012°24'108 7.7
2019-Sep-04 23:25N 37°18' W 011°01'4 9.1
2019-Sep-04 22:58N 37°21' W 010°58'4 8.8
2019-Sep-04 22:30N 37°24' W 010°55'4 8.1
2019-Sep-04 22:00N 37°27' W 010°51'4 8.4
2019-Sep-04 21:30N 37°30' W 010°48'4 8.7
2019-Sep-04 21:00N 37°33' W 010°44'5 9.5
2019-Sep-04 20:30N 37°37' W 010°40'5 9.7
2019-Sep-04 20:00N 37°40' W 010°35'5 9.5
2019-Sep-04 19:30N 37°44' W 010°31'5 9.6
2019-Sep-04 19:00N 37°47' W 010°27'5 9.3
2019-Sep-04 18:30N 37°51' W 010°23'5 9.0
2019-Sep-04 18:00N 37°54' W 010°20'4 8.8
2019-Sep-04 17:30N 37°57' W 010°16'4 8.8
2019-Sep-04 17:00N 38°01' W 010°12'4 8.5
2019-Sep-04 16:30N 38°04' W 010°09'4 8.2
2019-Sep-04 16:00N 38°07' W 010°05'4 7.9
2019-Sep-04 15:30N 38°10' W 010°02'4 7.5
2019-Sep-04 15:00N 38°12' W 009°59'4 7.4
2019-Sep-04 14:30N 38°15' W 009°55'4 7.7
2019-Sep-04 14:00N 38°18' W 009°52'4 7.7
2019-Sep-04 13:30N 38°21' W 009°49'4 7.2
2019-Sep-04 13:00N 38°24' W 009°46'4 7.3
2019-Sep-04 12:30N 38°26' W 009°43'4 7.7
2019-Sep-04 12:00N 38°29' W 009°39'4 7.5
2019-Sep-04 11:30N 38°31' W 009°35'4 7.8
2019-Sep-04 11:00N 38°33' W 009°31'4 7.5
2019-Sep-04 10:30N 38°35' W 009°27'3 7.0
2019-Sep-04 10:00N 38°37' W 009°23'5 9.1
2019-Sep-04 09:30N 38°40' W 009°19'4 8.5
2019-Sep-04 09:00N 38°41' W 009°13'  
2019-Aug-30 08:00N 38°42' W 009°10'1 2.0
2019-Aug-30 07:30N 38°42' W 009°08'1 2.8
2019-Aug-30 07:00N 38°42' W 009°07'0 0.0
2019-Aug-30 06:30N 38°42' W 009°07'0 0.0
2019-Aug-30 06:00N 38°42' W 009°07'0 0.0
2019-Aug-30 05:30N 38°42' W 009°07'0 0.0
2019-Aug-30 05:00N 38°42' W 009°07'0 0.0
2019-Aug-30 04:30N 38°42' W 009°07'0 0.0
2019-Aug-30 04:00N 38°42' W 009°07'0 0.1
2019-Aug-30 03:30N 38°42' W 009°07'0 0.0
2019-Aug-30 03:00N 38°42' W 009°07'0 0.0
2019-Aug-30 02:30N 38°42' W 009°07'0 0.0
2019-Aug-30 02:00N 38°42' W 009°07'0 0.0
2019-Aug-30 01:30N 38°42' W 009°07'0 0.0
2019-Aug-30 00:57N 38°42' W 009°07'0 0.0
2019-Aug-30 00:30N 38°42' W 009°07'0 0.0
2019-Aug-30 00:00N 38°42' W 009°07'0 0.0
2019-Aug-29 23:30N 38°42' W 009°07'0 0.0
2019-Aug-29 23:00N 38°42' W 009°07'0 0.0
2019-Aug-29 22:30N 38°42' W 009°07'0 0.0
2019-Aug-29 22:00N 38°42' W 009°07'0 0.1
2019-Aug-29 21:30N 38°42' W 009°07'0 0.1
2019-Aug-29 21:00N 38°42' W 009°07'0 0.0
2019-Aug-29 20:30N 38°42' W 009°07'0 0.0
2019-Aug-29 20:00N 38°42' W 009°07'0 0.0
2019-Aug-29 19:30N 38°42' W 009°07'0 0.0
2019-Aug-29 19:00N 38°42' W 009°07'0 0.0
2019-Aug-29 18:30N 38°42' W 009°07'0 0.0
2019-Aug-29 18:00N 38°42' W 009°07'0 0.0
2019-Aug-29 17:30N 38°42' W 009°07'0 0.0
2019-Aug-29 17:00N 38°42' W 009°07'0 0.1
2019-Aug-29 16:30N 38°42' W 009°07'0 0.1
2019-Aug-29 16:00N 38°42' W 009°07'0 0.0
2019-Aug-29 15:30N 38°42' W 009°07'0 0.1
2019-Aug-29 15:00N 38°42' W 009°07'0 0.0
2019-Aug-29 14:27N 38°42' W 009°07'0 0.0
2019-Aug-29 14:00N 38°42' W 009°07'0 0.0
2019-Aug-29 13:30N 38°42' W 009°07'1 1.1
2019-Aug-29 13:00N 38°42' W 009°07'4 7.6
2019-Aug-29 12:30N 38°41' W 009°12'4 6.8
2019-Aug-29 11:59N 38°41' W 009°17'4 7.2
2019-Aug-29 11:30N 38°39' W 009°20'3 6.6
2019-Aug-29 11:00N 38°37' W 009°24'3 6.0
2019-Aug-29 10:30N 38°37' W 009°27'3 6.2
2019-Aug-29 10:00N 38°37' W 009°31'4 5.5
2019-Aug-29 09:16N 38°38' W 009°36'2 5.8
2019-Aug-29 08:53N 38°38' W 009°39'2 5.6
2019-Aug-29 08:28N 38°39' W 009°42'3 6.8
2019-Aug-29 08:00N 38°42' W 009°43'3 6.8
2019-Aug-29 07:30N 38°45' W 009°43'4 7.1
2019-Aug-29 07:00N 38°49' W 009°43'4 7.3
2019-Aug-29 06:30N 38°53' W 009°44'4 8.0
2019-Aug-29 06:00N 38°57' W 009°44'4 8.5
2019-Aug-29 05:30N 39°01' W 009°44'4 8.2
2019-Aug-29 04:59N 39°05' W 009°44'  
Track history (hours):
 
Tides and Currents Weather Stations Pressure Air Temp Water Temp Dewpoint Dewpoint Depression Visibility Wind Speed Wind Dir Waves Ship Positions

Cisne Branco (Brazil)

Last reported at 2019-Sep-05 14:53 UTC. Time now 2019-Oct-22 23:34 UTC.
Position N 35°44' W 012°31'.
Warning: this ship's position is 47 days out of date.

Length 78 m; draft 4.8 m.

MMSI: 710428000.

Date/timePositionNaut miles runAvg speedWind from/ knotsBaromVisibWave heightAir tempDewpointWater temp
2019-Sep-05 14:53N 35°44' W 012°31'10 6.9
2019-Sep-05 13:23N 35°53' W 012°24'108 7.7
2019-Sep-04 23:25N 37°18' W 011°01'4 9.1
2019-Sep-04 22:58N 37°21' W 010°58'4 8.8
2019-Sep-04 22:30N 37°24' W 010°55'4 8.1
2019-Sep-04 22:00N 37°27' W 010°51'4 8.4
2019-Sep-04 21:30N 37°30' W 010°48'4 8.7
2019-Sep-04 21:00N 37°33' W 010°44'5 9.5
2019-Sep-04 20:30N 37°37' W 010°40'5 9.7
2019-Sep-04 20:00N 37°40' W 010°35'5 9.5
2019-Sep-04 19:30N 37°44' W 010°31'5 9.6
2019-Sep-04 19:00N 37°47' W 010°27'5 9.3
2019-Sep-04 18:30N 37°51' W 010°23'5 9.0
2019-Sep-04 18:00N 37°54' W 010°20'4 8.8
2019-Sep-04 17:30N 37°57' W 010°16'4 8.8
2019-Sep-04 17:00N 38°01' W 010°12'4 8.5
2019-Sep-04 16:30N 38°04' W 010°09'4 8.2
2019-Sep-04 16:00N 38°07' W 010°05'4 7.9
2019-Sep-04 15:30N 38°10' W 010°02'4 7.5
2019-Sep-04 15:00N 38°12' W 009°59'4 7.4
2019-Sep-04 14:30N 38°15' W 009°55'4 7.7
2019-Sep-04 14:00N 38°18' W 009°52'4 7.7
2019-Sep-04 13:30N 38°21' W 009°49'4 7.2
2019-Sep-04 13:00N 38°24' W 009°46'4 7.3
2019-Sep-04 12:30N 38°26' W 009°43'4 7.7
2019-Sep-04 12:00N 38°29' W 009°39'4 7.5
2019-Sep-04 11:30N 38°31' W 009°35'4 7.8
2019-Sep-04 11:00N 38°33' W 009°31'4 7.5
2019-Sep-04 10:30N 38°35' W 009°27'3 7.0
2019-Sep-04 10:00N 38°37' W 009°23'5 9.1
2019-Sep-04 09:30N 38°40' W 009°19'4 8.5
2019-Sep-04 09:00N 38°41' W 009°13'  
2019-Aug-30 08:00N 38°42' W 009°10'1 2.0
2019-Aug-30 07:30N 38°42' W 009°08'1 2.8
2019-Aug-30 07:00N 38°42' W 009°07'0 0.0
2019-Aug-30 06:30N 38°42' W 009°07'0 0.0
2019-Aug-30 06:00N 38°42' W 009°07'0 0.0
2019-Aug-30 05:30N 38°42' W 009°07'0 0.0
2019-Aug-30 05:00N 38°42' W 009°07'0 0.0
2019-Aug-30 04:30N 38°42' W 009°07'0 0.0
2019-Aug-30 04:00N 38°42' W 009°07'0 0.1
2019-Aug-30 03:30N 38°42' W 009°07'0 0.0
2019-Aug-30 03:00N 38°42' W 009°07'0 0.0
2019-Aug-30 02:30N 38°42' W 009°07'0 0.0
2019-Aug-30 02:00N 38°42' W 009°07'0 0.0
2019-Aug-30 01:30N 38°42' W 009°07'0 0.0
2019-Aug-30 00:57N 38°42' W 009°07'0 0.0
2019-Aug-30 00:30N 38°42' W 009°07'0 0.0
2019-Aug-30 00:00N 38°42' W 009°07'0 0.0
2019-Aug-29 23:30N 38°42' W 009°07'0 0.0
2019-Aug-29 23:00N 38°42' W 009°07'0 0.0
2019-Aug-29 22:30N 38°42' W 009°07'0 0.0
2019-Aug-29 22:00N 38°42' W 009°07'0 0.1
2019-Aug-29 21:30N 38°42' W 009°07'0 0.1
2019-Aug-29 21:00N 38°42' W 009°07'0 0.0
2019-Aug-29 20:30N 38°42' W 009°07'0 0.0
2019-Aug-29 20:00N 38°42' W 009°07'0 0.0
2019-Aug-29 19:30N 38°42' W 009°07'0 0.0
2019-Aug-29 19:00N 38°42' W 009°07'0 0.0
2019-Aug-29 18:30N 38°42' W 009°07'0 0.0
2019-Aug-29 18:00N 38°42' W 009°07'0 0.0
2019-Aug-29 17:30N 38°42' W 009°07'0 0.0
2019-Aug-29 17:00N 38°42' W 009°07'0 0.1
2019-Aug-29 16:30N 38°42' W 009°07'0 0.1
2019-Aug-29 16:00N 38°42' W 009°07'0 0.0
2019-Aug-29 15:30N 38°42' W 009°07'0 0.1
2019-Aug-29 15:00N 38°42' W 009°07'0 0.0
2019-Aug-29 14:27N 38°42' W 009°07'0 0.0
2019-Aug-29 14:00N 38°42' W 009°07'0 0.0
2019-Aug-29 13:30N 38°42' W 009°07'1 1.1
2019-Aug-29 13:00N 38°42' W 009°07'4 7.6
2019-Aug-29 12:30N 38°41' W 009°12'4 6.8
2019-Aug-29 11:59N 38°41' W 009°17'4 7.2
2019-Aug-29 11:30N 38°39' W 009°20'3 6.6
2019-Aug-29 11:00N 38°37' W 009°24'3 6.0
2019-Aug-29 10:30N 38°37' W 009°27'3 6.2
2019-Aug-29 10:00N 38°37' W 009°31'4 5.5
2019-Aug-29 09:16N 38°38' W 009°36'2 5.8
2019-Aug-29 08:53N 38°38' W 009°39'2 5.6
2019-Aug-29 08:28N 38°39' W 009°42'3 6.8
2019-Aug-29 08:00N 38°42' W 009°43'3 6.8
2019-Aug-29 07:30N 38°45' W 009°43'4 7.1
2019-Aug-29 07:00N 38°49' W 009°43'4 7.3
2019-Aug-29 06:30N 38°53' W 009°44'4 8.0
2019-Aug-29 06:00N 38°57' W 009°44'4 8.5
2019-Aug-29 05:30N 39°01' W 009°44'4 8.2
2019-Aug-29 04:59N 39°05' W 009°44'  

Dump ship's entire track history